sensor_id;sensor_type;location;lat;lon;timestamp;temperature;humidity
31443;SHT31;18065;55.876;9.830;2024-01-30T00:00:05;22.38;44.25
31443;SHT31;18065;55.876;9.830;2024-01-30T00:02:38;22.42;44.24
31443;SHT31;18065;55.876;9.830;2024-01-30T00:05:08;22.39;44.29
31443;SHT31;18065;55.876;9.830;2024-01-30T00:07:37;22.39;44.27
31443;SHT31;18065;55.876;9.830;2024-01-30T00:10:07;22.41;44.29
31443;SHT31;18065;55.876;9.830;2024-01-30T00:12:36;22.41;44.30
31443;SHT31;18065;55.876;9.830;2024-01-30T00:15:05;22.41;44.25
31443;SHT31;18065;55.876;9.830;2024-01-30T00:17:38;22.38;44.28
31443;SHT31;18065;55.876;9.830;2024-01-30T00:20:07;22.37;44.29
31443;SHT31;18065;55.876;9.830;2024-01-30T00:22:36;22.35;44.26
31443;SHT31;18065;55.876;9.830;2024-01-30T00:25:06;22.39;44.29
31443;SHT31;18065;55.876;9.830;2024-01-30T00:27:32;22.38;44.28
31443;SHT31;18065;55.876;9.830;2024-01-30T00:30:01;22.37;44.30
31443;SHT31;18065;55.876;9.830;2024-01-30T00:32:30;22.38;44.33
31443;SHT31;18065;55.876;9.830;2024-01-30T00:35:02;22.35;44.33
31443;SHT31;18065;55.876;9.830;2024-01-30T00:37:31;22.37;44.29
31443;SHT31;18065;55.876;9.830;2024-01-30T00:40:00;22.35;44.30
31443;SHT31;18065;55.876;9.830;2024-01-30T00:42:29;22.37;44.31
31443;SHT31;18065;55.876;9.830;2024-01-30T00:44:58;22.37;44.25
31443;SHT31;18065;55.876;9.830;2024-01-30T00:47:27;22.35;44.24
31443;SHT31;18065;55.876;9.830;2024-01-30T00:50:01;22.37;44.24
31443;SHT31;18065;55.876;9.830;2024-01-30T00:52:30;22.34;44.28
31443;SHT31;18065;55.876;9.830;2024-01-30T00:54:59;22.32;44.30
31443;SHT31;18065;55.876;9.830;2024-01-30T00:57:28;22.32;44.27
31443;SHT31;18065;55.876;9.830;2024-01-30T00:59:57;22.34;44.29
31443;SHT31;18065;55.876;9.830;2024-01-30T01:02:26;22.32;44.29
31443;SHT31;18065;55.876;9.830;2024-01-30T01:04:55;22.32;44.31
31443;SHT31;18065;55.876;9.830;2024-01-30T01:07:27;22.31;44.29
31443;SHT31;18065;55.876;9.830;2024-01-30T01:09:55;22.29;44.27
31443;SHT31;18065;55.876;9.830;2024-01-30T01:12:24;22.34;44.33
31443;SHT31;18065;55.876;9.830;2024-01-30T01:14:53;22.32;44.23
31443;SHT31;18065;55.876;9.830;2024-01-30T01:17:22;22.31;44.29
31443;SHT31;18065;55.876;9.830;2024-01-30T01:19:51;22.31;44.30
31443;SHT31;18065;55.876;9.830;2024-01-30T01:22:20;22.29;44.30
31443;SHT31;18065;55.876;9.830;2024-01-30T01:24:51;22.28;44.26
31443;SHT31;18065;55.876;9.830;2024-01-30T01:27:20;22.29;44.27
31443;SHT31;18065;55.876;9.830;2024-01-30T01:29:49;22.31;44.27
31443;SHT31;18065;55.876;9.830;2024-01-30T01:32:18;22.29;44.25
31443;SHT31;18065;55.876;9.830;2024-01-30T01:34:47;22.32;44.29
31443;SHT31;18065;55.876;9.830;2024-01-30T01:37:16;22.29;44.30
31443;SHT31;18065;55.876;9.830;2024-01-30T01:39:47;22.29;44.26
31443;SHT31;18065;55.876;9.830;2024-01-30T01:42:19;22.29;44.25
31443;SHT31;18065;55.876;9.830;2024-01-30T01:44:48;22.29;44.29
31443;SHT31;18065;55.876;9.830;2024-01-30T01:47:17;22.29;44.25
31443;SHT31;18065;55.876;9.830;2024-01-30T01:49:46;22.28;44.23
31443;SHT31;18065;55.876;9.830;2024-01-30T01:52:16;22.29;44.27
31443;SHT31;18065;55.876;9.830;2024-01-30T01:54:45;22.31;44.26
31443;SHT31;18065;55.876;9.830;2024-01-30T01:57:14;22.27;44.26
31443;SHT31;18065;55.876;9.830;2024-01-30T01:59:46;22.28;44.27
31443;SHT31;18065;55.876;9.830;2024-01-30T02:02:17;22.28;44.24
31443;SHT31;18065;55.876;9.830;2024-01-30T02:04:47;22.25;44.30
31443;SHT31;18065;55.876;9.830;2024-01-30T02:07:16;22.28;44.31
31443;SHT31;18065;55.876;9.830;2024-01-30T02:09:45;22.25;44.29
31443;SHT31;18065;55.876;9.830;2024-01-30T02:12:14;22.27;44.27
31443;SHT31;18065;55.876;9.830;2024-01-30T02:14:50;22.25;44.28
31443;SHT31;18065;55.876;9.830;2024-01-30T02:17:20;22.25;44.27
31443;SHT31;18065;55.876;9.830;2024-01-30T02:19:49;22.25;44.25
31443;SHT31;18065;55.876;9.830;2024-01-30T02:22:21;22.24;44.26
31443;SHT31;18065;55.876;9.830;2024-01-30T02:24:51;22.24;44.27
31443;SHT31;18065;55.876;9.830;2024-01-30T02:27:20;22.24;44.31
31443;SHT31;18065;55.876;9.830;2024-01-30T02:29:48;22.25;44.25
31443;SHT31;18065;55.876;9.830;2024-01-30T02:32:17;22.24;44.27
31443;SHT31;18065;55.876;9.830;2024-01-30T02:34:46;22.24;44.29
31443;SHT31;18065;55.876;9.830;2024-01-30T02:37:16;22.24;44.25
31443;SHT31;18065;55.876;9.830;2024-01-30T02:39:48;22.24;44.29
31443;SHT31;18065;55.876;9.830;2024-01-30T02:42:17;22.24;44.29
31443;SHT31;18065;55.876;9.830;2024-01-30T02:44:46;22.24;44.24
31443;SHT31;18065;55.876;9.830;2024-01-30T02:47:15;22.22;44.33
31443;SHT31;18065;55.876;9.830;2024-01-30T02:49:44;22.21;44.28
31443;SHT31;18065;55.876;9.830;2024-01-30T02:52:13;22.21;44.30
31443;SHT31;18065;55.876;9.830;2024-01-30T02:54:42;22.22;44.30
31443;SHT31;18065;55.876;9.830;2024-01-30T02:57:13;22.21;44.26
31443;SHT31;18065;55.876;9.830;2024-01-30T02:59:42;22.21;44.30
31443;SHT31;18065;55.876;9.830;2024-01-30T03:02:11;22.21;44.28
31443;SHT31;18065;55.876;9.830;2024-01-30T03:04:41;22.21;44.28
31443;SHT31;18065;55.876;9.830;2024-01-30T03:07:10;22.21;44.27
31443;SHT31;18065;55.876;9.830;2024-01-30T03:09:39;22.20;44.28
31443;SHT31;18065;55.876;9.830;2024-01-30T03:12:10;22.20;44.26
31443;SHT31;18065;55.876;9.830;2024-01-30T03:14:41;22.21;44.25
31443;SHT31;18065;55.876;9.830;2024-01-30T03:17:10;22.20;44.25
31443;SHT31;18065;55.876;9.830;2024-01-30T03:19:39;22.21;44.29
31443;SHT31;18065;55.876;9.830;2024-01-30T03:22:08;22.20;44.25
31443;SHT31;18065;55.876;9.830;2024-01-30T03:24:37;22.17;44.30
31443;SHT31;18065;55.876;9.830;2024-01-30T03:27:06;22.20;44.26
31443;SHT31;18065;55.876;9.830;2024-01-30T03:29:35;22.18;44.24
31443;SHT31;18065;55.876;9.830;2024-01-30T03:32:07;22.14;44.25
31443;SHT31;18065;55.876;9.830;2024-01-30T03:34:36;22.16;44.22
31443;SHT31;18065;55.876;9.830;2024-01-30T03:37:05;22.16;44.27
31443;SHT31;18065;55.876;9.830;2024-01-30T03:39:34;22.20;44.29
31443;SHT31;18065;55.876;9.830;2024-01-30T03:42:03;22.17;44.28
31443;SHT31;18065;55.876;9.830;2024-01-30T03:44:32;22.17;44.28
31443;SHT31;18065;55.876;9.830;2024-01-30T03:47:01;22.16;44.26
31443;SHT31;18065;55.876;9.830;2024-01-30T03:49:33;22.16;44.29
31443;SHT31;18065;55.876;9.830;2024-01-30T03:52:02;22.16;44.27
31443;SHT31;18065;55.876;9.830;2024-01-30T03:54:31;22.17;44.27
31443;SHT31;18065;55.876;9.830;2024-01-30T03:57:00;22.16;44.27
31443;SHT31;18065;55.876;9.830;2024-01-30T03:59:28;22.14;44.28
31443;SHT31;18065;55.876;9.830;2024-01-30T04:01:57;22.17;44.28
31443;SHT31;18065;55.876;9.830;2024-01-30T04:04:26;22.16;44.31
31443;SHT31;18065;55.876;9.830;2024-01-30T04:06:58;22.16;44.18
31443;SHT31;18065;55.876;9.830;2024-01-30T04:09:27;22.14;44.32
31443;SHT31;18065;55.876;9.830;2024-01-30T04:11:56;22.16;44.27
31443;SHT31;18065;55.876;9.830;2024-01-30T04:14:25;22.16;44.30
31443;SHT31;18065;55.876;9.830;2024-01-30T04:16:54;22.14;44.26
31443;SHT31;18065;55.876;9.830;2024-01-30T04:19:23;22.11;44.27
31443;SHT31;18065;55.876;9.830;2024-01-30T04:21:52;22.14;44.29
31443;SHT31;18065;55.876;9.830;2024-01-30T04:24:23;22.14;44.23
31443;SHT31;18065;55.876;9.830;2024-01-30T04:26:52;22.13;44.25
31443;SHT31;18065;55.876;9.830;2024-01-30T04:29:21;22.13;44.30
31443;SHT31;18065;55.876;9.830;2024-01-30T04:31:50;22.13;44.29
31443;SHT31;18065;55.876;9.830;2024-01-30T04:34:19;22.14;44.27
31443;SHT31;18065;55.876;9.830;2024-01-30T04:36:48;22.13;44.24
31443;SHT31;18065;55.876;9.830;2024-01-30T04:39:17;22.11;44.26
31443;SHT31;18065;55.876;9.830;2024-01-30T04:41:48;22.11;44.25
31443;SHT31;18065;55.876;9.830;2024-01-30T04:44:17;22.11;44.24
31443;SHT31;18065;55.876;9.830;2024-01-30T04:46:46;22.13;44.27
31443;SHT31;18065;55.876;9.830;2024-01-30T04:49:15;22.10;44.27
31443;SHT31;18065;55.876;9.830;2024-01-30T04:51:44;22.10;44.26
31443;SHT31;18065;55.876;9.830;2024-01-30T04:54:13;22.10;44.26
31443;SHT31;18065;55.876;9.830;2024-01-30T04:56:42;22.10;44.30
31443;SHT31;18065;55.876;9.830;2024-01-30T04:59:14;22.11;44.32
31443;SHT31;18065;55.876;9.830;2024-01-30T05:01:43;22.10;44.29
31443;SHT31;18065;55.876;9.830;2024-01-30T05:04:11;22.11;44.25
31443;SHT31;18065;55.876;9.830;2024-01-30T05:06:40;22.10;44.25
31443;SHT31;18065;55.876;9.830;2024-01-30T05:09:09;22.08;44.25
31443;SHT31;18065;55.876;9.830;2024-01-30T05:11:39;22.08;44.29
31443;SHT31;18065;55.876;9.830;2024-01-30T05:14:08;22.10;44.29
31443;SHT31;18065;55.876;9.830;2024-01-30T05:16:40;22.08;44.25
31443;SHT31;18065;55.876;9.830;2024-01-30T05:19:12;22.10;44.29
31443;SHT31;18065;55.876;9.830;2024-01-30T05:21:41;22.08;44.26
31443;SHT31;18065;55.876;9.830;2024-01-30T05:24:10;22.08;44.27
31443;SHT31;18065;55.876;9.830;2024-01-30T05:26:39;22.06;44.28
31443;SHT31;18065;55.876;9.830;2024-01-30T05:29:08;22.07;44.25
31443;SHT31;18065;55.876;9.830;2024-01-30T05:31:40;22.08;44.22
31443;SHT31;18065;55.876;9.830;2024-01-30T05:34:09;22.08;44.29
31443;SHT31;18065;55.876;9.830;2024-01-30T05:36:38;22.07;44.27
31443;SHT31;18065;55.876;9.830;2024-01-30T05:39:07;22.08;44.28
31443;SHT31;18065;55.876;9.830;2024-01-30T05:41:36;22.07;44.30
31443;SHT31;18065;55.876;9.830;2024-01-30T05:44:05;22.06;44.28
31443;SHT31;18065;55.876;9.830;2024-01-30T05:46:35;22.08;44.25
31443;SHT31;18065;55.876;9.830;2024-01-30T05:49:06;22.06;44.27
31443;SHT31;18065;55.876;9.830;2024-01-30T05:51:35;22.07;44.26
31443;SHT31;18065;55.876;9.830;2024-01-30T05:54:04;22.04;44.24
31443;SHT31;18065;55.876;9.830;2024-01-30T05:56:33;22.03;44.26
31443;SHT31;18065;55.876;9.830;2024-01-30T05:59:02;22.06;44.27
31443;SHT31;18065;55.876;9.830;2024-01-30T06:01:31;22.06;44.28
31443;SHT31;18065;55.876;9.830;2024-01-30T06:04:00;22.07;44.23
31443;SHT31;18065;55.876;9.830;2024-01-30T06:06:32;22.04;44.24
31443;SHT31;18065;55.876;9.830;2024-01-30T06:09:01;22.04;44.28
31443;SHT31;18065;55.876;9.830;2024-01-30T06:11:30;22.06;44.26
31443;SHT31;18065;55.876;9.830;2024-01-30T06:13:59;22.06;44.26
31443;SHT31;18065;55.876;9.830;2024-01-30T06:16:28;22.06;44.22
31443;SHT31;18065;55.876;9.830;2024-01-30T06:18:58;22.03;44.26
31443;SHT31;18065;55.876;9.830;2024-01-30T06:21:26;22.03;44.28
31443;SHT31;18065;55.876;9.830;2024-01-30T06:23:59;22.03;44.27
31443;SHT31;18065;55.876;9.830;2024-01-30T06:26:28;22.03;44.24
31443;SHT31;18065;55.876;9.830;2024-01-30T06:28:56;22.03;44.24
31443;SHT31;18065;55.876;9.830;2024-01-30T06:31:25;22.03;44.23
31443;SHT31;18065;55.876;9.830;2024-01-30T06:33:54;22.04;44.20
31443;SHT31;18065;55.876;9.830;2024-01-30T06:36:23;22.03;44.23
31443;SHT31;18065;55.876;9.830;2024-01-30T06:38:52;22.03;44.25
31443;SHT31;18065;55.876;9.830;2024-01-30T06:41:24;22.01;44.21
31443;SHT31;18065;55.876;9.830;2024-01-30T06:43:53;22.01;44.21
31443;SHT31;18065;55.876;9.830;2024-01-30T06:46:22;22.03;44.28
31443;SHT31;18065;55.876;9.830;2024-01-30T06:48:51;22.01;44.25
31443;SHT31;18065;55.876;9.830;2024-01-30T06:51:20;22.03;44.20
31443;SHT31;18065;55.876;9.830;2024-01-30T06:53:49;22.01;44.23
31443;SHT31;18065;55.876;9.830;2024-01-30T06:56:18;22.01;44.24
31443;SHT31;18065;55.876;9.830;2024-01-30T06:58:50;22.01;44.21
31443;SHT31;18065;55.876;9.830;2024-01-30T07:01:19;22.00;44.26
31443;SHT31;18065;55.876;9.830;2024-01-30T07:03:48;22.03;44.22
31443;SHT31;18065;55.876;9.830;2024-01-30T07:06:17;22.00;44.18
31443;SHT31;18065;55.876;9.830;2024-01-30T07:08:46;21.98;44.26
31443;SHT31;18065;55.876;9.830;2024-01-30T07:11:18;22.00;44.18
31443;SHT31;18065;55.876;9.830;2024-01-30T07:13:51;22.00;44.26
31443;SHT31;18065;55.876;9.830;2024-01-30T07:16:20;21.97;44.22
31443;SHT31;18065;55.876;9.830;2024-01-30T07:18:49;22.00;44.22
31443;SHT31;18065;55.876;9.830;2024-01-30T07:21:18;21.98;44.22
31443;SHT31;18065;55.876;9.830;2024-01-30T07:23:47;22.00;44.23
31443;SHT31;18065;55.876;9.830;2024-01-30T07:26:16;21.97;44.22
31443;SHT31;18065;55.876;9.830;2024-01-30T07:28:45;21.98;44.21
31443;SHT31;18065;55.876;9.830;2024-01-30T07:31:17;22.00;44.17
31443;SHT31;18065;55.876;9.830;2024-01-30T07:33:46;21.97;44.20
31443;SHT31;18065;55.876;9.830;2024-01-30T07:36:15;22.00;44.23
31443;SHT31;18065;55.876;9.830;2024-01-30T07:38:44;21.97;44.20
31443;SHT31;18065;55.876;9.830;2024-01-30T07:41:13;22.00;44.23
31443;SHT31;18065;55.876;9.830;2024-01-30T07:43:43;21.96;44.26
31443;SHT31;18065;55.876;9.830;2024-01-30T07:46:12;21.97;44.19
31443;SHT31;18065;55.876;9.830;2024-01-30T07:48:44;21.97;44.18
31443;SHT31;18065;55.876;9.830;2024-01-30T07:51:13;21.98;44.20
31443;SHT31;18065;55.876;9.830;2024-01-30T07:53:42;22.00;44.23
31443;SHT31;18065;55.876;9.830;2024-01-30T07:56:11;21.94;44.20
31443;SHT31;18065;55.876;9.830;2024-01-30T07:58:39;21.97;44.19
31443;SHT31;18065;55.876;9.830;2024-01-30T08:01:08;21.97;44.22
31443;SHT31;18065;55.876;9.830;2024-01-30T08:03:38;21.97;44.22
31443;SHT31;18065;55.876;9.830;2024-01-30T08:06:10;21.97;44.20
31443;SHT31;18065;55.876;9.830;2024-01-30T08:08:39;21.97;44.24
31443;SHT31;18065;55.876;9.830;2024-01-30T08:11:08;21.96;44.19
31443;SHT31;18065;55.876;9.830;2024-01-30T08:13:37;21.96;44.18
31443;SHT31;18065;55.876;9.830;2024-01-30T08:16:07;21.94;44.21
31443;SHT31;18065;55.876;9.830;2024-01-30T08:18:35;21.96;44.17
31443;SHT31;18065;55.876;9.830;2024-01-30T08:21:05;21.94;44.23
31443;SHT31;18065;55.876;9.830;2024-01-30T08:23:38;21.94;44.20
31443;SHT31;18065;55.876;9.830;2024-01-30T08:26:07;21.96;44.22
31443;SHT31;18065;55.876;9.830;2024-01-30T08:28:36;21.96;44.20
31443;SHT31;18065;55.876;9.830;2024-01-30T08:31:05;21.97;44.19
31443;SHT31;18065;55.876;9.830;2024-01-30T08:33:33;21.94;44.19
31443;SHT31;18065;55.876;9.830;2024-01-30T08:36:03;21.96;44.20
31443;SHT31;18065;55.876;9.830;2024-01-30T08:38:32;21.97;44.18
31443;SHT31;18065;55.876;9.830;2024-01-30T08:41:03;21.97;44.18
31443;SHT31;18065;55.876;9.830;2024-01-30T08:43:32;21.94;44.14
31443;SHT31;18065;55.876;9.830;2024-01-30T08:46:02;21.94;44.19
31443;SHT31;18065;55.876;9.830;2024-01-30T08:48:31;21.94;44.17
31443;SHT31;18065;55.876;9.830;2024-01-30T08:51:01;21.96;44.18
31443;SHT31;18065;55.876;9.830;2024-01-30T08:53:34;21.94;44.14
31443;SHT31;18065;55.876;9.830;2024-01-30T08:56:06;21.97;44.14
31443;SHT31;18065;55.876;9.830;2024-01-30T08:58:35;21.96;44.18
31443;SHT31;18065;55.876;9.830;2024-01-30T09:01:05;21.94;44.14
31443;SHT31;18065;55.876;9.830;2024-01-30T09:03:34;21.97;44.13
31443;SHT31;18065;55.876;9.830;2024-01-30T09:06:08;21.94;44.12
31443;SHT31;18065;55.876;9.830;2024-01-30T09:08:37;21.96;44.14
31443;SHT31;18065;55.876;9.830;2024-01-30T09:11:12;21.96;44.12
31443;SHT31;18065;55.876;9.830;2024-01-30T09:13:41;21.93;44.15
31443;SHT31;18065;55.876;9.830;2024-01-30T09:16:10;21.94;44.13
31443;SHT31;18065;55.876;9.830;2024-01-30T09:18:39;21.94;44.12
31443;SHT31;18065;55.876;9.830;2024-01-30T09:21:08;21.96;44.15
31443;SHT31;18065;55.876;9.830;2024-01-30T09:23:38;21.93;44.18
31443;SHT31;18065;55.876;9.830;2024-01-30T09:26:07;21.94;44.11
31443;SHT31;18065;55.876;9.830;2024-01-30T09:28:38;21.96;44.12
31443;SHT31;18065;55.876;9.830;2024-01-30T09:31:10;21.94;44.10
31443;SHT31;18065;55.876;9.830;2024-01-30T09:33:39;21.93;44.11
31443;SHT31;18065;55.876;9.830;2024-01-30T09:36:09;21.94;44.11
31443;SHT31;18065;55.876;9.830;2024-01-30T09:38:40;21.98;44.09
31443;SHT31;18065;55.876;9.830;2024-01-30T09:41:10;21.94;44.08
31443;SHT31;18065;55.876;9.830;2024-01-30T09:43:42;21.94;44.06
31443;SHT31;18065;55.876;9.830;2024-01-30T09:46:15;21.97;44.03
31443;SHT31;18065;55.876;9.830;2024-01-30T09:48:46;21.97;44.08
31443;SHT31;18065;55.876;9.830;2024-01-30T09:51:15;21.97;44.06
31443;SHT31;18065;55.876;9.830;2024-01-30T09:53:45;21.93;44.10
31443;SHT31;18065;55.876;9.830;2024-01-30T09:56:14;21.94;44.05
31443;SHT31;18065;55.876;9.830;2024-01-30T09:58:45;21.98;44.01
31443;SHT31;18065;55.876;9.830;2024-01-30T10:01:15;21.96;44.04
31443;SHT31;18065;55.876;9.830;2024-01-30T10:03:45;21.96;44.04
31443;SHT31;18065;55.876;9.830;2024-01-30T10:06:15;21.97;44.06
31443;SHT31;18065;55.876;9.830;2024-01-30T10:08:44;21.96;44.00
31443;SHT31;18065;55.876;9.830;2024-01-30T10:11:13;21.97;44.01
31443;SHT31;18065;55.876;9.830;2024-01-30T10:13:42;21.96;44.00
31443;SHT31;18065;55.876;9.830;2024-01-30T10:16:16;21.94;44.03
31443;SHT31;18065;55.876;9.830;2024-01-30T10:18:45;21.96;44.03
31443;SHT31;18065;55.876;9.830;2024-01-30T10:21:14;21.96;44.01
31443;SHT31;18065;55.876;9.830;2024-01-30T10:23:43;21.94;44.03
31443;SHT31;18065;55.876;9.830;2024-01-30T10:26:13;21.96;44.02
31443;SHT31;18065;55.876;9.830;2024-01-30T10:28:43;21.94;44.07
31443;SHT31;18065;55.876;9.830;2024-01-30T10:31:19;21.93;44.01
31443;SHT31;18065;55.876;9.830;2024-01-30T10:33:48;21.96;44.04
31443;SHT31;18065;55.876;9.830;2024-01-30T10:36:17;21.97;43.99
31443;SHT31;18065;55.876;9.830;2024-01-30T10:38:51;21.94;44.02
31443;SHT31;18065;55.876;9.830;2024-01-30T10:41:25;21.94;43.99
31443;SHT31;18065;55.876;9.830;2024-01-30T10:44:02;21.94;43.98
31443;SHT31;18065;55.876;9.830;2024-01-30T10:46:35;21.94;43.97
31443;SHT31;18065;55.876;9.830;2024-01-30T10:49:06;21.94;44.02
31443;SHT31;18065;55.876;9.830;2024-01-30T10:51:37;21.93;43.99
31443;SHT31;18065;55.876;9.830;2024-01-30T10:54:07;21.93;44.05
31443;SHT31;18065;55.876;9.830;2024-01-30T10:56:37;21.94;44.03
31443;SHT31;18065;55.876;9.830;2024-01-30T10:59:06;21.96;44.02
31443;SHT31;18065;55.876;9.830;2024-01-30T11:01:38;21.93;44.03
31443;SHT31;18065;55.876;9.830;2024-01-30T11:04:07;21.93;44.02
31443;SHT31;18065;55.876;9.830;2024-01-30T11:06:41;21.93;44.00
31443;SHT31;18065;55.876;9.830;2024-01-30T11:09:11;21.93;44.01
31443;SHT31;18065;55.876;9.830;2024-01-30T11:11:49;21.92;44.00
31443;SHT31;18065;55.876;9.830;2024-01-30T11:14:23;21.92;43.95
31443;SHT31;18065;55.876;9.830;2024-01-30T11:16:57;21.92;44.02
31443;SHT31;18065;55.876;9.830;2024-01-30T11:19:27;21.94;43.98
31443;SHT31;18065;55.876;9.830;2024-01-30T11:21:56;21.93;44.00
31443;SHT31;18065;55.876;9.830;2024-01-30T11:24:25;21.93;43.92
31443;SHT31;18065;55.876;9.830;2024-01-30T11:26:56;21.94;43.99
31443;SHT31;18065;55.876;9.830;2024-01-30T11:29:27;21.93;44.01
31443;SHT31;18065;55.876;9.830;2024-01-30T11:31:59;21.93;43.94
31443;SHT31;18065;55.876;9.830;2024-01-30T11:34:28;21.93;43.98
31443;SHT31;18065;55.876;9.830;2024-01-30T11:36:58;21.92;44.01
31443;SHT31;18065;55.876;9.830;2024-01-30T11:39:29;21.93;43.97
31443;SHT31;18065;55.876;9.830;2024-01-30T11:41:59;21.94;43.92
31443;SHT31;18065;55.876;9.830;2024-01-30T11:44:30;21.92;44.02
31443;SHT31;18065;55.876;9.830;2024-01-30T11:47:03;21.92;43.95
31443;SHT31;18065;55.876;9.830;2024-01-30T11:49:32;21.94;43.94
31443;SHT31;18065;55.876;9.830;2024-01-30T11:52:01;21.92;43.94
31443;SHT31;18065;55.876;9.830;2024-01-30T11:54:30;21.96;43.90
31443;SHT31;18065;55.876;9.830;2024-01-30T11:56:59;21.92;43.93
31443;SHT31;18065;55.876;9.830;2024-01-30T11:59:28;21.96;43.92
31443;SHT31;18065;55.876;9.830;2024-01-30T12:01:57;21.93;43.92
31443;SHT31;18065;55.876;9.830;2024-01-30T12:04:30;21.94;43.91
31443;SHT31;18065;55.876;9.830;2024-01-30T12:06:59;21.92;43.95
31443;SHT31;18065;55.876;9.830;2024-01-30T12:09:28;21.93;43.90
31443;SHT31;18065;55.876;9.830;2024-01-30T12:11:57;21.93;43.91
31443;SHT31;18065;55.876;9.830;2024-01-30T12:14:26;21.93;43.92
31443;SHT31;18065;55.876;9.830;2024-01-30T12:16:55;21.92;43.91
31443;SHT31;18065;55.876;9.830;2024-01-30T12:19:24;21.93;43.91
31443;SHT31;18065;55.876;9.830;2024-01-30T12:21:59;21.90;43.87
31443;SHT31;18065;55.876;9.830;2024-01-30T12:24:28;21.92;43.93
31443;SHT31;18065;55.876;9.830;2024-01-30T12:26:59;21.94;43.92
31443;SHT31;18065;55.876;9.830;2024-01-30T12:29:32;21.93;43.85
31443;SHT31;18065;55.876;9.830;2024-01-30T12:32:01;21.90;43.94
31443;SHT31;18065;55.876;9.830;2024-01-30T12:34:30;21.96;43.89
31443;SHT31;18065;55.876;9.830;2024-01-30T12:37:01;21.93;43.90
31443;SHT31;18065;55.876;9.830;2024-01-30T12:39:32;21.93;43.94
31443;SHT31;18065;55.876;9.830;2024-01-30T12:42:01;21.92;43.94
31443;SHT31;18065;55.876;9.830;2024-01-30T12:44:30;21.93;43.91
31443;SHT31;18065;55.876;9.830;2024-01-30T12:46:59;21.93;43.90
31443;SHT31;18065;55.876;9.830;2024-01-30T12:49:31;21.94;43.93
31443;SHT31;18065;55.876;9.830;2024-01-30T12:52:03;21.93;43.88
31443;SHT31;18065;55.876;9.830;2024-01-30T12:54:32;21.89;43.92
31443;SHT31;18065;55.876;9.830;2024-01-30T12:57:00;21.93;43.93
31443;SHT31;18065;55.876;9.830;2024-01-30T12:59:29;21.90;43.91
31443;SHT31;18065;55.876;9.830;2024-01-30T13:02:00;21.89;43.89
31443;SHT31;18065;55.876;9.830;2024-01-30T13:04:29;21.92;43.94
31443;SHT31;18065;55.876;9.830;2024-01-30T13:06:58;21.90;43.93
31443;SHT31;18065;55.876;9.830;2024-01-30T13:09:30;21.90;43.87
31443;SHT31;18065;55.876;9.830;2024-01-30T13:11:59;21.92;43.93
31443;SHT31;18065;55.876;9.830;2024-01-30T13:14:28;21.90;43.92
31443;SHT31;18065;55.876;9.830;2024-01-30T13:16:57;21.90;43.93
31443;SHT31;18065;55.876;9.830;2024-01-30T13:19:26;21.87;43.96
31443;SHT31;18065;55.876;9.830;2024-01-30T13:21:55;21.92;43.93
31443;SHT31;18065;55.876;9.830;2024-01-30T13:24:24;21.90;43.95
31443;SHT31;18065;55.876;9.830;2024-01-30T13:26:55;21.89;43.93
31443;SHT31;18065;55.876;9.830;2024-01-30T13:29:24;21.89;43.95
31443;SHT31;18065;55.876;9.830;2024-01-30T13:31:53;21.92;43.94
31443;SHT31;18065;55.876;9.830;2024-01-30T13:34:22;21.89;43.97
31443;SHT31;18065;55.876;9.830;2024-01-30T13:36:51;21.89;43.94
31443;SHT31;18065;55.876;9.830;2024-01-30T13:39:20;21.89;43.89
31443;SHT31;18065;55.876;9.830;2024-01-30T13:41:49;21.90;43.91
31443;SHT31;18065;55.876;9.830;2024-01-30T13:44:21;21.93;43.86
31443;SHT31;18065;55.876;9.830;2024-01-30T13:46:50;21.92;43.91
31443;SHT31;18065;55.876;9.830;2024-01-30T13:49:20;21.89;43.93
31443;SHT31;18065;55.876;9.830;2024-01-30T13:51:50;21.90;43.89
31443;SHT31;18065;55.876;9.830;2024-01-30T13:54:19;21.89;43.93
31443;SHT31;18065;55.876;9.830;2024-01-30T13:56:48;21.92;43.94
31443;SHT31;18065;55.876;9.830;2024-01-30T13:59:20;21.89;43.88
31443;SHT31;18065;55.876;9.830;2024-01-30T14:01:50;21.89;43.93
31443;SHT31;18065;55.876;9.830;2024-01-30T14:04:19;21.90;43.90
31443;SHT31;18065;55.876;9.830;2024-01-30T14:06:48;21.87;43.88
31443;SHT31;18065;55.876;9.830;2024-01-30T14:09:17;21.90;43.91
31443;SHT31;18065;55.876;9.830;2024-01-30T14:11:49;21.89;43.91
31443;SHT31;18065;55.876;9.830;2024-01-30T14:14:20;21.89;43.86
31443;SHT31;18065;55.876;9.830;2024-01-30T14:16:49;21.92;43.89
31443;SHT31;18065;55.876;9.830;2024-01-30T14:19:18;21.87;43.91
31443;SHT31;18065;55.876;9.830;2024-01-30T14:21:47;21.89;43.93
31443;SHT31;18065;55.876;9.830;2024-01-30T14:24:16;21.89;43.95
31443;SHT31;18065;55.876;9.830;2024-01-30T14:26:45;21.87;43.91
31443;SHT31;18065;55.876;9.830;2024-01-30T14:29:14;21.87;43.94
31443;SHT31;18065;55.876;9.830;2024-01-30T14:31:46;21.89;43.91
31443;SHT31;18065;55.876;9.830;2024-01-30T14:34:15;21.89;43.91
31443;SHT31;18065;55.876;9.830;2024-01-30T14:36:44;21.92;43.91
31443;SHT31;18065;55.876;9.830;2024-01-30T14:39:13;21.87;43.91
31443;SHT31;18065;55.876;9.830;2024-01-30T14:41:44;21.89;43.92
31443;SHT31;18065;55.876;9.830;2024-01-30T14:44:13;21.86;43.90
31443;SHT31;18065;55.876;9.830;2024-01-30T14:46:44;21.89;43.91
31443;SHT31;18065;55.876;9.830;2024-01-30T14:49:13;21.86;43.91
31443;SHT31;18065;55.876;9.830;2024-01-30T14:51:42;21.89;43.89
31443;SHT31;18065;55.876;9.830;2024-01-30T14:54:11;21.84;43.91
31443;SHT31;18065;55.876;9.830;2024-01-30T14:56:40;21.84;43.89
31443;SHT31;18065;55.876;9.830;2024-01-30T14:59:09;21.84;43.93
31443;SHT31;18065;55.876;9.830;2024-01-30T15:01:38;21.86;43.91
31443;SHT31;18065;55.876;9.830;2024-01-30T15:04:10;21.86;43.90
31443;SHT31;18065;55.876;9.830;2024-01-30T15:06:39;21.87;43.88
31443;SHT31;18065;55.876;9.830;2024-01-30T15:09:11;21.86;43.90
31443;SHT31;18065;55.876;9.830;2024-01-30T15:11:40;21.86;43.94
31443;SHT31;18065;55.876;9.830;2024-01-30T15:14:09;21.86;43.89
31443;SHT31;18065;55.876;9.830;2024-01-30T15:16:38;21.84;43.91
31443;SHT31;18065;55.876;9.830;2024-01-30T15:19:10;21.86;43.88
31443;SHT31;18065;55.876;9.830;2024-01-30T15:21:39;21.84;43.91
31443;SHT31;18065;55.876;9.830;2024-01-30T15:24:08;21.86;43.91
31443;SHT31;18065;55.876;9.830;2024-01-30T15:26:40;21.83;43.91
31443;SHT31;18065;55.876;9.830;2024-01-30T15:29:09;21.84;43.90
31443;SHT31;18065;55.876;9.830;2024-01-30T15:31:38;21.84;43.92
31443;SHT31;18065;55.876;9.830;2024-01-30T15:34:10;21.86;43.95
31443;SHT31;18065;55.876;9.830;2024-01-30T15:36:38;21.86;43.87
31443;SHT31;18065;55.876;9.830;2024-01-30T15:39:08;21.84;43.91
31443;SHT31;18065;55.876;9.830;2024-01-30T15:41:37;21.86;43.89
31443;SHT31;18065;55.876;9.830;2024-01-30T15:44:06;21.81;43.93